Time;durP1;ratioP1;P1;durP2;ratioP2;P2;SDS_P1;SDS_P2;PMS_P1;PMS_P2;Temp;Humidity;BMP_temperature;BMP_pressure;BME280_temperature;BME280_humidity;BME280_pressure;Samples;Min_cycle;Max_cycle;Signal;HPM_P1;HPM_P2
2023/10/29 00:00:28;;;;;;;10.45;3.38;;;;;;;16.29;96.45;100179.97;5048761;28;20033;-68
2023/10/29 00:02:54;;;;;;;9.05;3.50;;;;;;;16.38;96.58;100192.22;5048664;28;20047;-69
2023/10/29 00:05:20;;;;;;;9.07;2.88;;;;;;;16.47;95.59;100187.09;5048520;28;20060;-68
2023/10/29 00:07:46;;;;;;;9.55;2.90;;;;;;;16.37;95.62;100189.59;5028471;28;20447;-68
2023/10/29 00:10:11;;;;;;;9.00;2.95;;;;;;;16.22;96.23;100188.59;5028538;28;20112;-69
2023/10/29 00:12:37;;;;;;;9.65;3.25;;;;;;;15.69;97.68;100137.72;5028791;28;20030;-69
2023/10/29 00:15:05;;;;;;;8.27;3.53;;;;;;;16.01;98.02;100195.34;5028520;28;20146;-67
2023/10/29 00:17:31;;;;;;;11.15;3.75;;;;;;;16.00;98.27;100206.63;5028498;28;20182;-69
2023/10/29 00:19:59;;;;;;;8.77;3.17;;;;;;;15.87;97.80;100189.13;5028112;28;20077;-70
2023/10/29 00:22:26;;;;;;;11.02;3.53;;;;;;;15.42;98.32;100128.72;5028378;28;20040;-69
2023/10/29 00:24:51;;;;;;;12.82;3.10;;;;;;;15.45;98.23;100138.31;5028228;28;20484;-68
2023/10/29 00:27:17;;;;;;;7.57;3.03;;;;;;;15.60;98.75;100211.34;5028614;28;20028;-67
2023/10/29 00:29:43;;;;;;;8.45;3.35;;;;;;;15.47;99.79;100214.66;5027752;28;20026;-68
2023/10/29 00:32:08;;;;;;;7.47;3.40;;;;;;;14.90;100.00;100149.72;5028283;28;20034;-68
2023/10/29 00:34:34;;;;;;;9.15;3.40;;;;;;;15.23;100.00;100210.88;5027776;28;20036;-66
2023/10/29 00:36:59;;;;;;;9.45;3.50;;;;;;;15.22;100.00;100201.31;5028163;28;20029;-70
2023/10/29 00:39:25;;;;;;;8.02;3.47;;;;;;;15.23;100.00;100210.88;5011355;28;20055;-69
2023/10/29 00:41:51;;;;;;;11.40;3.85;;;;;;;15.04;100.00;100215.81;5028190;28;20107;-68
2023/10/29 00:44:16;;;;;;;8.55;3.00;;;;;;;14.95;100.00;100213.06;5032769;28;20053;-68
2023/10/29 00:46:42;;;;;;;8.18;3.58;;;;;;;14.91;100.00;100219.06;5070393;28;20054;-67
2023/10/29 00:49:08;;;;;;;11.23;3.08;;;;;;;14.75;100.00;100217.94;5070351;28;20035;-68
2023/10/29 00:51:35;;;;;;;9.93;4.00;;;;;;;14.60;100.00;100215.09;5070485;28;20090;-68
2023/10/29 00:54:01;;;;;;;9.38;3.70;;;;;;;14.23;100.00;100169.47;5069694;28;20513;-68
2023/10/29 00:56:26;;;;;;;10.63;4.20;;;;;;;14.60;100.00;100228.94;5070629;28;20131;-68
2023/10/29 00:58:52;;;;;;;10.57;3.75;;;;;;;14.54;100.00;100231.44;5070213;28;20103;-68
2023/10/29 01:01:19;;;;;;;9.55;3.83;;;;;;;14.46;100.00;100218.31;5070127;28;20040;-68
2023/10/29 01:03:44;;;;;;;10.55;3.75;;;;;;;14.54;100.00;100240.13;5069809;28;20025;-68
2023/10/29 01:06:11;;;;;;;10.13;4.20;;;;;;;14.62;100.00;100229.00;5052064;28;20107;-68
2023/10/29 01:08:37;;;;;;;11.63;4.30;;;;;;;14.78;100.00;100227.50;5069891;28;20470;-67
2023/10/29 01:11:05;;;;;;;15.57;4.03;;;;;;;14.90;100.00;100243.31;5034205;28;20032;-67
2023/10/29 01:13:32;;;;;;;9.70;3.83;;;;;;;15.08;99.55;100244.44;5070070;28;20028;-68
2023/10/29 01:15:58;;;;;;;18.20;3.58;;;;;;;15.20;98.04;100242.00;5017801;28;20102;-69
2023/10/29 01:18:23;;;;;;;12.75;3.60;;;;;;;15.10;98.04;100228.00;5069629;28;20672;-68
2023/10/29 01:20:49;;;;;;;20.88;4.03;;;;;;;15.13;100.00;100240.19;5052055;28;20490;-69
2023/10/29 01:23:14;;;;;;;10.77;3.92;;;;;;;15.17;99.70;100253.25;5069849;28;20040;-68
2023/10/29 01:25:41;;;;;;;12.43;3.75;;;;;;;15.10;100.00;100251.41;5069759;28;20020;-66
2023/10/29 01:28:07;;;;;;;16.27;3.88;;;;;;;15.26;100.00;100255.09;5069631;28;20043;-68
2023/10/29 01:30:33;;;;;;;9.30;3.30;;;;;;;15.39;98.88;100258.78;5069610;28;20020;-67
2023/10/29 01:32:59;;;;;;;9.60;3.50;;;;;;;15.40;98.56;100249.22;5069357;28;20036;-68
2023/10/29 01:35:24;;;;;;;9.73;4.28;;;;;;;15.44;97.85;100249.31;5069934;28;20025;-68
2023/10/29 01:37:51;;;;;;;9.10;3.70;;;;;;;15.43;98.20;100251.88;5069936;28;20036;-68
2023/10/29 01:40:16;;;;;;;11.45;4.50;;;;;;;15.50;97.94;100248.50;5069944;28;20076;-69
2023/10/29 01:42:43;;;;;;;9.25;3.97;;;;;;;15.47;96.68;100232.84;5074276;28;20039;-67
2023/10/29 01:45:10;;;;;;;15.57;5.20;;;;;;;15.61;96.28;100248.63;5073908;28;20033;-69
2023/10/29 01:47:35;;;;;;;10.75;4.07;;;;;;;15.79;95.42;100263.63;5073321;28;20047;-69
2023/10/29 01:50:01;;;;;;;17.67;4.57;;;;;;;15.60;94.51;100231.28;5073826;28;20024;-69
2023/10/29 01:52:26;;;;;;;13.52;4.05;;;;;;;15.70;95.02;100277.38;5073519;28;20031;-68
2023/10/29 01:54:52;;;;;;;7.72;3.65;;;;;;;15.71;94.85;100281.72;5073389;28;20045;-69
2023/10/29 01:57:17;;;;;;;13.18;4.40;;;;;;;15.65;94.68;100279.94;5073594;28;20456;-68
2023/10/29 01:59:43;;;;;;;10.85;3.45;;;;;;;15.60;94.32;100279.00;5059886;28;20036;-68
2023/10/29 02:02:09;;;;;;;8.10;3.80;;;;;;;15.43;93.13;100257.09;5053399;28;20025;-71
2023/10/29 02:04:35;;;;;;;12.25;3.60;;;;;;;15.16;92.64;100211.63;5072886;28;20105;-68
2023/10/29 02:07:00;;;;;;;11.73;3.90;;;;;;;15.46;92.34;100284.00;5058155;28;20049;-67
2023/10/29 02:09:26;;;;;;;15.38;4.25;;;;;;;15.24;93.76;100288.03;5063771;28;20126;-67
2023/10/29 02:11:51;;;;;;;7.95;4.10;;;;;;;15.08;97.40;100268.72;5073233;28;20744;-68
2023/10/29 02:14:17;;;;;;;11.82;5.18;;;;;;;14.47;99.56;100183.72;5072941;28;20028;-72
2023/10/29 02:16:42;;;;;;;17.70;5.25;;;;;;;15.10;100.00;100292.16;5073063;28;20028;-67
2023/10/29 02:19:08;;;;;;;10.57;4.78;;;;;;;15.09;100.00;100291.28;5072980;28;20052;-67
2023/10/29 02:21:36;;;;;;;12.02;4.47;;;;;;;14.97;100.00;100298.88;5073199;28;20025;-67
2023/10/29 02:24:02;;;;;;;15.23;6.10;;;;;;;14.94;100.00;100302.31;5073192;28;20025;-67
2023/10/29 02:26:27;;;;;;;8.57;5.25;;;;;;;14.89;100.00;100275.34;5073055;28;20029;-68
2023/10/29 02:28:53;;;;;;;14.70;4.88;;;;;;;15.15;100.00;100290.47;5072689;28;20034;-68
2023/10/29 02:31:21;;;;;;;10.15;4.43;;;;;;;15.29;100.00;100296.78;5072930;28;20064;-68
2023/10/29 02:33:48;;;;;;;14.63;4.22;;;;;;;15.34;100.00;100295.13;5072811;28;20025;-67
2023/10/29 02:36:14;;;;;;;10.07;3.50;;;;;;;15.40;100.00;100306.47;5072900;28;20025;-67
2023/10/29 02:38:40;;;;;;;15.88;3.63;;;;;;;15.42;100.00;100302.16;5070412;28;20037;-67
2023/10/29 02:41:06;;;;;;;8.52;3.28;;;;;;;15.20;100.00;100300.13;5072472;28;20037;-67
2023/10/29 02:43:33;;;;;;;12.63;3.20;;;;;;;15.09;100.00;100283.47;5071930;28;20398;-69
2023/10/29 02:45:58;;;;;;;14.70;3.92;;;;;;;15.12;100.00;100291.31;5059728;28;20780;-68
2023/10/29 02:48:25;;;;;;;8.85;3.97;;;;;;;15.21;100.00;100300.97;5029858;28;20036;-67
2023/10/29 02:50:51;;;;;;;27.10;6.00;;;;;;;15.19;100.00;100282.75;5065323;28;20086;-68
2023/10/29 02:53:17;;;;;;;16.13;6.28;;;;;;;14.91;100.00;100245.06;5027411;28;20518;-68
2023/10/29 02:55:43;;;;;;;22.30;8.23;;;;;;;15.30;100.00;100290.72;5069154;28;20057;-68
2023/10/29 02:58:08;;;;;;;30.95;8.35;;;;;;;15.51;100.00;100310.09;5071917;28;20024;-71
2023/10/29 03:00:34;;;;;;;16.45;7.22;;;;;;;15.41;100.00;100322.09;5069632;28;20047;-68
2023/10/29 03:02:59;;;;;;;21.65;9.02;;;;;;;15.48;100.00;100323.94;5071273;28;20028;-66
2023/10/29 03:05:25;;;;;;;17.25;7.18;;;;;;;15.43;100.00;100322.13;5071387;28;20056;-67
2023/10/29 03:07:50;;;;;;;16.42;6.43;;;;;;;14.92;100.00;100244.22;5071739;28;20028;-68
2023/10/29 03:10:16;;;;;;;17.27;5.40;;;;;;;15.35;100.00;100324.59;5070290;28;20040;-67
2023/10/29 03:12:41;;;;;;;9.80;5.00;;;;;;;15.27;100.00;100319.28;5072025;28;20570;-67
2023/10/29 03:15:07;;;;;;;14.70;5.70;;;;;;;15.03;100.00;100297.25;5071271;28;20035;-67
2023/10/29 03:17:33;;;;;;;13.68;5.45;;;;;;;15.06;100.00;100322.41;5053663;28;20035;-67
2023/10/29 03:19:58;;;;;;;10.00;5.30;;;;;;;14.87;100.00;100339.44;5071344;28;20028;-69
2023/10/29 03:22:24;;;;;;;12.73;6.15;;;;;;;14.69;100.00;100346.06;5035867;28;20048;-65
2023/10/29 03:24:50;;;;;;;14.10;6.22;;;;;;;14.65;100.00;100341.63;5053260;28;20103;-68
2023/10/29 03:27:15;;;;;;;12.82;5.35;;;;;;;14.61;100.00;100341.53;5071773;28;20035;-67
2023/10/29 03:29:41;;;;;;;10.60;5.68;;;;;;;14.51;100.00;100330.09;5071547;28;20033;-67
2023/10/29 03:32:06;;;;;;;11.63;5.80;;;;;;;13.92;100.00;100256.28;5070751;28;20040;-69
2023/10/29 03:34:31;;;;;;;14.30;5.40;;;;;;;14.33;100.00;100348.78;5052528;28;20089;-67
2023/10/29 03:36:57;;;;;;;9.35;5.32;;;;;;;14.24;100.00;100354.69;5070929;28;20032;-66
2023/10/29 03:39:23;;;;;;;15.73;5.57;;;;;;;13.71;100.00;100280.94;5070236;28;20391;-68
2023/10/29 03:41:48;;;;;;;14.02;5.35;;;;;;;14.16;100.00;100364.91;5070841;28;20086;-68
2023/10/29 03:44:14;;;;;;;11.27;5.60;;;;;;;13.67;100.00;100281.72;5070410;28;20024;-68
2023/10/29 03:46:40;;;;;;;12.50;5.75;;;;;;;13.76;100.00;100299.22;5071425;28;20068;-66
2023/10/29 03:49:06;;;;;;;13.15;4.97;;;;;;;14.18;100.00;100383.13;5071164;28;20024;-66
2023/10/29 03:51:31;;;;;;;12.27;5.88;;;;;;;14.06;100.00;100361.25;5070958;28;20021;-67
2023/10/29 03:53:57;;;;;;;12.77;5.28;;;;;;;13.77;100.00;100311.34;5070682;28;20044;-66
2023/10/29 03:56:23;;;;;;;10.52;5.15;;;;;;;14.07;100.00;100357.81;5071358;28;20131;-67
2023/10/29 03:58:48;;;;;;;12.90;5.45;;;;;;;14.09;100.00;100373.41;5052458;28;20119;-68
2023/10/29 04:01:14;;;;;;;20.13;6.85;;;;;;;13.81;100.00;100340.84;5071353;28;20043;-67
2023/10/29 04:03:41;;;;;;;15.10;6.45;;;;;;;14.07;100.00;100377.72;5052106;28;20032;-67
2023/10/29 04:06:11;;;;;;;12.13;5.32;;;;;;;14.24;100.00;100383.25;5070874;28;20106;-67
2023/10/29 04:08:37;;;;;;;14.93;5.25;;;;;;;14.34;100.00;100381.72;5070565;28;20107;-69
2023/10/29 04:11:03;;;;;;;11.23;5.43;;;;;;;13.86;100.00;100306.34;5070718;28;20024;-67
2023/10/29 04:13:29;;;;;;;13.07;5.00;;;;;;;14.49;100.00;100386.34;5070906;28;20033;-68
2023/10/29 04:15:54;;;;;;;11.95;5.10;;;;;;;14.47;100.00;100378.53;5070701;28;20111;-66
2023/10/29 04:18:23;;;;;;;10.25;5.03;;;;;;;14.46;100.00;100392.34;5070569;28;20032;-67
2023/10/29 04:20:48;;;;;;;11.55;4.93;;;;;;;14.37;100.00;100368.81;5070730;28;20103;-64
2023/10/29 04:23:14;;;;;;;156.02;12.70;;;;;;;14.31;100.00;100360.91;5070520;28;20120;-69
2023/10/29 04:25:41;;;;;;;17.05;4.65;;;;;;;14.43;100.00;100378.44;5070568;28;20028;-67
2023/10/29 04:28:07;;;;;;;13.32;4.75;;;;;;;14.39;100.00;100395.66;5034531;28;20070;-66
2023/10/29 04:30:32;;;;;;;12.25;4.40;;;;;;;14.28;100.00;100391.97;5070178;28;20040;-65
2023/10/29 04:32:58;;;;;;;12.52;4.80;;;;;;;14.20;100.00;100392.69;5070202;28;20020;-67
2023/10/29 04:35:24;;;;;;;11.77;4.45;;;;;;;14.04;100.00;100391.50;5070167;28;20020;-67
2023/10/29 04:37:49;;;;;;;10.98;4.00;;;;;;;13.98;100.00;100404.34;5070556;28;20032;-67
2023/10/29 04:40:15;;;;;;;11.18;4.00;;;;;;;13.94;100.00;100405.09;5070074;28;20025;-68
2023/10/29 04:42:40;;;;;;;12.45;3.65;;;;;;;13.36;100.00;100317.31;5069990;28;20100;-67
2023/10/29 04:45:06;;;;;;;9.32;3.72;;;;;;;13.86;100.00;100411.88;5070528;28;20479;-67
2023/10/29 04:47:32;;;;;;;8.30;4.20;;;;;;;13.78;100.00;100410.81;5069886;28;20490;-69
2023/10/29 04:49:57;;;;;;;13.15;5.20;;;;;;;13.64;100.00;100405.31;5070401;28;20025;-66
2023/10/29 04:52:22;;;;;;;9.23;4.32;;;;;;;13.58;100.00;100411.22;5070246;28;20481;-66
2023/10/29 04:54:48;;;;;;;54.63;35.28;;;;;;;13.54;100.00;100431.00;5070120;28;20052;-67
2023/10/29 04:57:14;;;;;;;100.60;70.40;;;;;;;13.13;100.00;100383.31;5069651;28;20028;-66
2023/10/29 04:59:39;;;;;;;36.20;21.88;;;;;;;13.31;100.00;100420.06;5069829;28;20028;-67
2023/10/29 05:02:05;;;;;;;14.40;8.18;;;;;;;13.38;100.00;100436.66;5069819;28;20122;-66
2023/10/29 05:04:30;;;;;;;14.07;6.93;;;;;;;13.26;100.00;100442.41;5069974;28;20027;-66
2023/10/29 05:06:56;;;;;;;32.22;23.75;;;;;;;13.28;100.00;100451.06;5069718;28;20020;-68
2023/10/29 05:09:21;;;;;;;25.02;20.13;;;;;;;13.22;100.00;100445.72;5069874;28;20076;-70
2023/10/29 05:11:47;;;;;;;23.98;13.30;;;;;;;13.13;100.00;100455.88;5069380;28;20035;-69
2023/10/29 05:14:13;;;;;;;20.40;7.55;;;;;;;13.18;100.00;100464.66;5069733;28;20044;-69
2023/10/29 05:16:38;;;;;;;12.23;5.00;;;;;;;13.24;100.00;100452.72;5069724;28;20111;-67
2023/10/29 05:19:04;;;;;;;16.15;6.22;;;;;;;13.23;100.00;100465.63;5069726;28;20033;-69
2023/10/29 05:21:29;;;;;;;11.88;6.22;;;;;;;12.68;100.00;100390.78;5069364;28;20016;-69
2023/10/29 05:23:55;;;;;;;15.73;8.80;;;;;;;12.93;100.00;100420.84;5069960;28;20028;-68
2023/10/29 05:26:20;;;;;;;13.32;5.30;;;;;;;13.35;100.00;100472.88;5069274;28;20486;-69
2023/10/29 05:28:46;;;;;;;13.07;4.97;;;;;;;13.38;100.00;100466.09;5069915;28;20435;-68
2023/10/29 05:31:11;;;;;;;11.48;4.25;;;;;;;13.51;100.00;100484.56;5069302;28;20058;-67
2023/10/29 05:33:37;;;;;;;14.95;4.32;;;;;;;13.50;100.00;100480.19;5069591;28;20466;-68
2023/10/29 05:36:04;;;;;;;9.68;4.72;;;;;;;13.55;100.00;100486.38;5069208;28;20452;-69
2023/10/29 05:38:29;;;;;;;9.63;4.00;;;;;;;13.67;100.00;100499.66;5069473;28;20090;-73
2023/10/29 05:40:55;;;;;;;14.07;6.13;;;;;;;13.23;100.00;100419.88;5068980;28;20025;-72
2023/10/29 05:43:20;;;;;;;14.82;6.15;;;;;;;13.85;100.00;100509.59;5069671;28;20494;-67
2023/10/29 05:45:46;;;;;;;10.52;5.53;;;;;;;13.99;100.00;100499.53;5069378;28;20028;-67
2023/10/29 05:48:12;;;;;;;19.10;6.22;;;;;;;14.15;100.00;100505.09;5069538;28;20380;-68
2023/10/29 05:50:38;;;;;;;14.57;6.03;;;;;;;14.05;100.00;100481.50;5069513;28;20471;-69
2023/10/29 05:53:04;;;;;;;9.23;4.20;;;;;;;14.29;100.00;100503.66;5069285;28;20060;-68
2023/10/29 05:55:30;;;;;;;9.68;4.03;;;;;;;14.40;100.00;100491.81;5068230;28;20815;-67
2023/10/29 05:57:56;;;;;;;13.30;4.20;;;;;;;14.56;100.00;100511.19;5069636;28;20033;-68
2023/10/29 06:00:22;;;;;;;8.65;3.97;;;;;;;14.51;100.00;100498.97;5033532;28;20437;-72
2023/10/29 06:02:47;;;;;;;8.23;4.07;;;;;;;14.60;100.00;100521.66;5069156;28;20029;-68
2023/10/29 06:05:13;;;;;;;18.27;12.48;;;;;;;14.58;100.00;100526.81;5069002;28;20035;-69
2023/10/29 06:07:43;;;;;;;9.68;5.15;;;;;;;14.54;100.00;100536.28;5069401;28;20115;-69
2023/10/29 06:10:15;;;;;;;12.63;4.10;;;;;;;14.62;100.00;100533.84;5068861;28;20107;-69
2023/10/29 06:12:42;;;;;;;9.80;3.90;;;;;;;14.57;100.00;100523.34;5051394;28;20506;-71
2023/10/29 06:15:09;;;;;;;10.90;4.20;;;;;;;14.66;100.00;100547.81;5033513;28;20090;-69
2023/10/29 06:17:36;;;;;;;9.10;3.95;;;;;;;14.62;100.00;100530.38;5006717;28;20846;-70
2023/10/29 06:20:05;;;;;;;6.97;3.67;;;;;;;14.62;100.00;100541.63;4990669;28;20104;-68
2023/10/29 06:22:32;;;;;;;8.05;3.47;;;;;;;14.59;100.00;100543.28;4995880;28;20041;-68
2023/10/29 06:24:58;;;;;;;13.40;3.80;;;;;;;14.51;100.00;100546.59;5006569;28;20038;-67
2023/10/29 06:27:24;;;;;;;9.18;5.10;;;;;;;14.52;100.00;100555.28;4973859;28;20041;-69
2023/10/29 06:29:49;;;;;;;8.68;4.22;;;;;;;14.47;100.00;100544.75;5010307;28;20084;-70
2023/10/29 06:32:15;;;;;;;9.32;4.05;;;;;;;14.55;100.00;100556.22;4993725;28;20070;-69
2023/10/29 06:34:40;;;;;;;6.93;3.65;;;;;;;14.57;100.00;100551.03;4999482;28;20038;-67
2023/10/29 06:37:06;;;;;;;13.30;4.20;;;;;;;14.33;100.00;100489.03;5009649;28;20105;-70
2023/10/29 06:39:31;;;;;;;7.35;3.70;;;;;;;14.70;100.00;100527.13;5010241;28;20026;-67
2023/10/29 06:41:57;;;;;;;14.10;5.45;;;;;;;15.00;100.00;100572.78;5010363;28;20065;-69
2023/10/29 06:44:22;;;;;;;11.68;4.30;;;;;;;15.04;99.31;100572.00;5010046;28;20038;-71
2023/10/29 06:46:48;;;;;;;10.45;5.03;;;;;;;14.99;99.82;100559.72;4998880;28;20121;-68
2023/10/29 06:49:13;;;;;;;10.95;4.55;;;;;;;15.15;99.84;100574.81;5033995;28;20052;-67
2023/10/29 06:51:39;;;;;;;12.18;5.00;;;;;;;15.00;100.00;100540.69;5069848;28;20021;-67
2023/10/29 06:54:05;;;;;;;10.80;4.60;;;;;;;15.19;100.00;100573.16;5051669;28;21283;-69
2023/10/29 06:56:32;;;;;;;14.57;4.38;;;;;;;15.27;100.00;100581.97;5065674;28;20033;-69
2023/10/29 06:58:57;;;;;;;12.95;4.65;;;;;;;15.27;100.00;100579.38;5070155;28;20016;-70
2023/10/29 07:01:22;;;;;;;14.07;6.30;;;;;;;15.28;100.00;100575.94;5070235;28;20027;-70
2023/10/29 07:03:48;;;;;;;11.02;4.90;;;;;;;15.19;100.00;100531.56;5069727;28;20550;-70
2023/10/29 07:06:16;;;;;;;11.82;4.35;;;;;;;15.24;100.00;100501.31;5070879;28;20024;-67
2023/10/29 07:08:42;;;;;;;11.65;4.20;;;;;;;15.82;99.59;100581.25;5071738;28;20099;-70
2023/10/29 07:11:07;;;;;;;15.93;4.75;;;;;;;16.03;99.60;100582.50;5063326;28;20044;-69
2023/10/29 07:13:32;;;;;;;8.55;3.80;;;;;;;16.17;97.15;100573.16;5070301;28;20024;-68
2023/10/29 07:16:02;;;;;;;9.23;3.95;;;;;;;16.43;96.80;100585.72;5071446;28;20032;-68
2023/10/29 07:18:28;;;;;;;10.23;3.70;;;;;;;16.55;95.93;100578.06;5054574;28;20414;-67
2023/10/29 07:20:55;;;;;;;11.13;3.47;;;;;;;16.57;94.94;100586.75;5071092;28;20039;-71
2023/10/29 07:23:22;;;;;;;7.43;3.33;;;;;;;16.70;93.67;100569.59;5069161;28;20039;-66
2023/10/29 07:25:47;;;;;;;8.45;3.10;;;;;;;16.86;93.01;100569.78;5069092;28;20509;-69
2023/10/29 07:28:17;;;;;;;7.25;3.00;;;;;;;17.20;92.07;100591.97;5071494;28;20025;-75
2023/10/29 07:30:42;;;;;;;12.05;3.28;;;;;;;17.30;90.51;100585.97;5071044;28;20032;-67
2023/10/29 07:33:10;;;;;;;9.45;2.70;;;;;;;17.51;90.50;100591.41;5071540;28;20108;-68
2023/10/29 07:35:36;;;;;;;6.57;2.67;;;;;;;17.57;89.37;100597.59;5071209;28;20047;-69
2023/10/29 07:38:02;;;;;;;7.28;3.03;;;;;;;17.63;88.78;100596.75;5070676;28;20025;-70
2023/10/29 07:40:27;;;;;;;9.02;2.40;;;;;;;17.76;90.23;100592.56;5070771;28;20017;-67
2023/10/29 07:42:53;;;;;;;7.50;2.67;;;;;;;17.36;87.46;100517.34;5071331;28;20031;-70
2023/10/29 07:45:18;;;;;;;7.30;2.70;;;;;;;17.93;87.09;100585.75;5071591;28;20021;-68
2023/10/29 07:47:43;;;;;;;8.40;2.60;;;;;;;17.76;85.70;100532.50;5071045;28;20032;-69
2023/10/29 07:50:12;;;;;;;7.63;2.78;;;;;;;17.83;85.26;100520.34;5071054;28;20028;-73
2023/10/29 07:52:39;;;;;;;6.82;2.65;;;;;;;18.27;84.98;100572.09;5071390;28;20028;-69
2023/10/29 07:55:11;;;;;;;9.55;3.15;;;;;;;18.45;83.02;100563.50;5071258;28;20509;-70
2023/10/29 07:57:38;;;;;;;12.40;3.38;;;;;;;18.70;82.96;100584.56;5070937;28;20024;-69
2023/10/29 08:00:13;;;;;;;8.18;2.53;;;;;;;18.92;82.76;100590.81;5070852;28;20479;-69
2023/10/29 08:02:39;;;;;;;11.02;3.28;;;;;;;19.07;82.91;100593.47;5037561;28;20119;-69
2023/10/29 08:05:05;;;;;;;10.32;3.70;;;;;;;19.26;81.89;100590.06;5070615;28;20036;-69
2023/10/29 08:07:30;;;;;;;10.23;3.58;;;;;;;19.47;79.82;100597.09;5021710;28;20083;-68
2023/10/29 08:09:58;;;;;;;14.75;4.70;;;;;;;19.67;78.78;100603.22;5035406;28;20036;-68
2023/10/29 08:12:25;;;;;;;10.57;4.03;;;;;;;19.80;78.42;100600.63;5070511;28;20024;-69
2023/10/29 08:14:51;;;;;;;32.17;5.00;;;;;;;19.94;78.09;100604.19;5070344;28;20081;-72
2023/10/29 08:17:17;;;;;;;16.60;4.63;;;;;;;19.72;77.99;100540.38;5070345;28;20457;-69
2023/10/29 08:19:46;;;;;;;16.15;5.18;;;;;;;20.14;76.52;100593.69;5070718;28;20040;-69
2023/10/29 08:22:11;;;;;;;18.65;5.80;;;;;;;19.88;76.40;100530.81;5057561;28;20016;-69
2023/10/29 08:24:37;;;;;;;8.65;3.63;;;;;;;20.39;76.96;100598.03;5028572;28;20037;-68
2023/10/29 08:27:05;;;;;;;12.38;3.65;;;;;;;20.54;75.25;100598.00;5070217;28;20021;-68
2023/10/29 08:29:31;;;;;;;14.50;3.88;;;;;;;20.66;77.01;100604.97;5059807;28;20025;-69
2023/10/29 08:31:57;;;;;;;13.63;4.07;;;;;;;20.40;76.07;100540.34;5070104;28;20546;-69
2023/10/29 08:34:22;;;;;;;12.95;4.28;;;;;;;20.82;75.44;100590.97;5070002;28;20115;-69
2023/10/29 08:36:48;;;;;;;24.77;5.20;;;;;;;20.84;75.49;100585.72;5070525;28;20086;-67
2023/10/29 08:39:14;;;;;;;15.77;5.43;;;;;;;20.99;75.46;100600.53;5070337;28;20024;-70
2023/10/29 08:41:39;;;;;;;11.25;4.63;;;;;;;21.07;74.84;100583.00;5069828;28;20027;-69
2023/10/29 08:44:05;;;;;;;19.65;5.03;;;;;;;21.27;73.99;100606.53;5069871;28;20028;-70
2023/10/29 08:46:31;;;;;;;13.63;5.25;;;;;;;21.39;72.18;100610.84;5069894;28;20470;-69
2023/10/29 08:48:56;;;;;;;11.57;4.97;;;;;;;21.53;72.76;100602.00;5069954;28;20029;-69
2023/10/29 08:51:21;;;;;;;15.13;4.90;;;;;;;21.68;68.16;100607.19;5070177;28;20383;-69
2023/10/29 08:53:47;;;;;;;14.73;6.05;;;;;;;21.86;67.86;100607.94;5070003;28;20043;-69
2023/10/29 08:56:14;;;;;;;12.80;5.32;;;;;;;21.77;67.76;100567.72;5069614;28;20114;-68
2023/10/29 08:58:39;;;;;;;17.20;6.03;;;;;;;21.96;67.49;100610.50;5070234;28;20109;-70
2023/10/29 09:01:12;;;;;;;9.55;4.45;;;;;;;21.88;65.35;100583.41;5067979;28;21040;-68
2023/10/29 09:03:37;;;;;;;9.40;4.40;;;;;;;21.96;65.85;100596.50;5070395;28;20032;-67
2023/10/29 09:06:04;;;;;;;11.60;4.07;;;;;;;21.96;64.82;100599.97;5068285;28;20035;-68
2023/10/29 09:08:31;;;;;;;11.23;4.75;;;;;;;21.96;64.82;100578.94;5070250;28;20039;-75
2023/10/29 09:10:57;;;;;;;10.75;3.17;;;;;;;21.76;63.22;100525.69;5065831;28;20113;-67
2023/10/29 09:13:24;;;;;;;8.85;2.90;;;;;;;22.24;63.46;100585.72;5068396;28;20474;-68
2023/10/29 09:15:49;;;;;;;8.93;2.13;;;;;;;22.27;61.56;100568.16;5069816;28;20398;-69
2023/10/29 09:18:16;;;;;;;3.13;1.65;;;;;;;22.50;61.20;100566.22;5069892;28;20020;-68
2023/10/29 09:20:46;;;;;;;6.45;2.10;;;;;;;22.72;59.78;100578.22;5069486;28;20033;-68
2023/10/29 09:23:11;;;;;;;5.20;1.80;;;;;;;;;;5070095;28;20025;-69
2023/10/29 09:25:37;;;;;;;5.40;1.58;;;;;;;23.10;60.30;100566.38;5069545;28;20024;-69
2023/10/29 09:28:05;;;;;;;3.50;1.85;;;;;;;23.25;60.31;100562.69;5069485;28;20028;-67
2023/10/29 09:30:31;;;;;;;5.88;1.88;;;;;;;23.36;56.57;100562.50;5069463;28;20510;-68
2023/10/29 09:32:58;;;;;;;6.65;1.88;;;;;;;23.50;58.29;100557.06;5069768;28;20060;-68
2023/10/29 09:35:24;;;;;;;4.43;1.42;;;;;;;23.66;57.58;100549.75;5069744;28;20103;-68
2023/10/29 09:37:50;;;;;;;5.68;1.63;;;;;;;23.51;56.72;100507.84;5026891;28;20561;-70
2023/10/29 09:40:16;;;;;;;5.00;1.65;;;;;;;23.90;56.64;100550.25;5021052;28;20034;-70
2023/10/29 09:42:53;;;;;;;3.60;2.13;;;;;;;23.70;54.07;100518.94;5001211;28;20046;-69
2023/10/29 09:45:22;;;;;;;5.45;1.40;;;;;;;23.79;53.97;100547.81;5016689;28;20029;-70
2023/10/29 09:47:48;;;;;;;4.70;1.48;;;;;;;23.94;53.19;100541.44;5016538;28;20543;-70
2023/10/29 09:50:14;;;;;;;3.30;1.20;;;;;;;23.82;53.20;100508.19;5018232;28;20076;-70
2023/10/29 09:52:41;;;;;;;4.85;1.33;;;;;;;23.95;52.75;100547.56;5016752;28;20132;-69
2023/10/29 09:55:08;;;;;;;4.10;1.40;;;;;;;23.95;53.37;100547.56;5016585;28;20061;-71
2023/10/29 09:57:34;;;;;;;4.13;1.38;;;;;;;23.72;53.17;100477.63;5017931;28;20045;-70
2023/10/29 10:00:00;;;;;;;6.38;1.60;;;;;;;24.10;51.91;100533.25;5016964;28;20499;-71
2023/10/29 10:02:26;;;;;;;4.47;1.20;;;;;;;23.63;51.86;100459.31;5018530;28;20029;-71
2023/10/29 10:04:52;;;;;;;3.90;1.38;;;;;;;23.87;51.39;100479.97;5021687;28;20540;-70
2023/10/29 10:07:18;;;;;;;6.35;1.55;;;;;;;24.26;51.00;100547.88;5020191;28;20049;-70
2023/10/29 10:09:55;;;;;;;3.63;1.40;;;;;;;24.34;51.02;100539.84;5065133;28;20101;-72
2023/10/29 10:12:21;;;;;;;5.00;1.67;;;;;;;24.56;50.21;100545.56;5070308;28;20032;-70
2023/10/29 10:14:49;;;;;;;4.40;1.77;;;;;;;24.64;49.76;100527.81;5072720;28;20036;-71
2023/10/29 10:17:14;;;;;;;4.25;1.67;;;;;;;24.75;49.27;100535.53;5073085;28;20039;-69
2023/10/29 10:19:40;;;;;;;5.28;1.80;;;;;;;24.68;50.27;100540.06;5073059;28;20631;-69
2023/10/29 10:22:07;;;;;;;7.80;1.77;;;;;;;24.81;50.11;100538.06;5072439;28;20470;-70
2023/10/29 10:24:48;;;;;;;3.80;1.60;;;;;;;24.88;49.79;100520.28;5069203;28;20095;-71
2023/10/29 10:27:13;;;;;;;5.00;1.77;;;;;;;24.99;49.31;100533.28;5072215;28;20024;-68
2023/10/29 10:29:39;;;;;;;4.18;1.73;;;;;;;25.06;48.49;100531.34;5055146;28;20178;-69
2023/10/29 10:32:06;;;;;;;5.55;1.27;;;;;;;24.97;48.13;100512.19;5072720;28;20025;-71
2023/10/29 10:34:39;;;;;;;5.50;1.90;;;;;;;25.14;48.12;100532.06;5072482;28;20028;-70
2023/10/29 10:37:04;;;;;;;7.78;2.40;;;;;;;24.96;48.57;100535.97;5070567;28;20027;-69
2023/10/29 10:39:31;;;;;;;8.32;1.60;;;;;;;25.09;47.49;100545.38;5068854;28;20020;-68
2023/10/29 10:42:00;;;;;;;3.53;1.10;;;;;;;24.99;47.40;100528.00;5071361;28;20461;-69
2023/10/29 10:44:27;;;;;;;4.43;1.30;;;;;;;24.86;48.55;100522.09;5064274;28;20119;-70
2023/10/29 10:46:54;;;;;;;3.45;1.15;;;;;;;24.98;48.06;100518.31;5071560;28;20086;-69
2023/10/29 10:49:21;;;;;;;4.50;1.50;;;;;;;25.08;47.56;100498.72;5034623;28;20505;-69
2023/10/29 10:51:48;;;;;;;3.90;1.73;;;;;;;25.07;47.61;100496.97;5071666;28;20032;-69
2023/10/29 10:54:17;;;;;;;6.70;1.67;;;;;;;25.15;48.10;100496.81;5068745;28;20028;-70
2023/10/29 10:56:44;;;;;;;6.43;1.92;;;;;;;24.94;48.19;100435.66;5017139;28;20101;-70
2023/10/29 10:59:10;;;;;;;6.47;1.90;;;;;;;25.49;47.38;100501.31;5071812;28;20501;-69
2023/10/29 11:01:37;;;;;;;6.95;1.65;;;;;;;25.64;48.06;100500.94;5071762;28;20028;-69
2023/10/29 11:04:05;;;;;;;7.63;2.10;;;;;;;25.65;47.19;100481.53;5070228;28;20067;-69
2023/10/29 11:06:31;;;;;;;7.32;1.90;;;;;;;25.03;46.27;100363.25;5069848;28;20036;-69
2023/10/29 11:09:00;;;;;;;6.82;1.98;;;;;;;25.86;46.54;100492.47;5026952;28;20136;-69
2023/10/29 11:11:33;;;;;;;5.72;1.85;;;;;;;25.57;46.37;100430.66;5072018;28;20406;-70